sensor_id;sensor_type;location;lat;lon;timestamp;P1;durP1;ratioP1;P2;durP2;ratioP2
11203;SDS011;5659;49.408;11.116;2023-03-01T00:00:51;29.50;;;17.40;;
11203;SDS011;5659;49.408;11.116;2023-03-01T00:03:17;30.40;;;18.33;;
11203;SDS011;5659;49.408;11.116;2023-03-01T00:05:44;36.63;;;18.07;;
11203;SDS011;5659;49.408;11.116;2023-03-01T00:08:10;28.33;;;18.73;;
11203;SDS011;5659;49.408;11.116;2023-03-01T00:10:36;32.70;;;18.77;;
11203;SDS011;5659;49.408;11.116;2023-03-01T00:13:02;30.70;;;19.07;;
11203;SDS011;5659;49.408;11.116;2023-03-01T00:15:30;28.50;;;19.50;;
11203;SDS011;5659;49.408;11.116;2023-03-01T00:17:56;32.43;;;18.77;;
11203;SDS011;5659;49.408;11.116;2023-03-01T00:20:22;30.63;;;19.77;;
11203;SDS011;5659;49.408;11.116;2023-03-01T00:22:48;32.10;;;19.53;;
11203;SDS011;5659;49.408;11.116;2023-03-01T00:25:14;32.53;;;20.07;;
11203;SDS011;5659;49.408;11.116;2023-03-01T00:27:40;29.80;;;19.07;;
11203;SDS011;5659;49.408;11.116;2023-03-01T00:30:06;28.47;;;18.60;;
11203;SDS011;5659;49.408;11.116;2023-03-01T00:32:33;26.60;;;18.30;;
11203;SDS011;5659;49.408;11.116;2023-03-01T00:34:59;31.17;;;19.90;;
11203;SDS011;5659;49.408;11.116;2023-03-01T00:37:25;29.10;;;18.70;;
11203;SDS011;5659;49.408;11.116;2023-03-01T00:39:51;33.03;;;19.07;;
11203;SDS011;5659;49.408;11.116;2023-03-01T00:42:17;33.03;;;19.37;;
11203;SDS011;5659;49.408;11.116;2023-03-01T00:44:43;33.63;;;19.13;;
11203;SDS011;5659;49.408;11.116;2023-03-01T00:47:09;29.60;;;20.03;;
11203;SDS011;5659;49.408;11.116;2023-03-01T00:49:36;28.00;;;19.10;;
11203;SDS011;5659;49.408;11.116;2023-03-01T00:52:05;35.03;;;20.73;;
11203;SDS011;5659;49.408;11.116;2023-03-01T00:54:31;36.83;;;20.73;;
11203;SDS011;5659;49.408;11.116;2023-03-01T00:56:57;32.03;;;20.50;;
11203;SDS011;5659;49.408;11.116;2023-03-01T00:59:23;32.50;;;21.40;;
11203;SDS011;5659;49.408;11.116;2023-03-01T01:01:49;32.40;;;19.83;;
11203;SDS011;5659;49.408;11.116;2023-03-01T01:04:15;31.77;;;20.80;;
11203;SDS011;5659;49.408;11.116;2023-03-01T01:06:43;36.47;;;22.23;;
11203;SDS011;5659;49.408;11.116;2023-03-01T01:09:10;34.33;;;21.23;;
11203;SDS011;5659;49.408;11.116;2023-03-01T01:11:42;33.40;;;20.00;;
11203;SDS011;5659;49.408;11.116;2023-03-01T01:14:08;36.03;;;20.33;;
11203;SDS011;5659;49.408;11.116;2023-03-01T01:16:34;33.60;;;20.50;;
11203;SDS011;5659;49.408;11.116;2023-03-01T01:19:00;31.73;;;19.67;;
11203;SDS011;5659;49.408;11.116;2023-03-01T01:21:26;30.97;;;19.87;;
11203;SDS011;5659;49.408;11.116;2023-03-01T01:23:52;33.93;;;20.73;;
11203;SDS011;5659;49.408;11.116;2023-03-01T01:26:19;37.10;;;20.97;;
11203;SDS011;5659;49.408;11.116;2023-03-01T01:28:46;35.10;;;20.70;;
11203;SDS011;5659;49.408;11.116;2023-03-01T01:31:12;32.47;;;20.03;;
11203;SDS011;5659;49.408;11.116;2023-03-01T01:33:38;30.60;;;20.20;;
11203;SDS011;5659;49.408;11.116;2023-03-01T01:36:05;37.30;;;20.53;;
11203;SDS011;5659;49.408;11.116;2023-03-01T01:38:31;28.90;;;19.50;;
11203;SDS011;5659;49.408;11.116;2023-03-01T01:40:58;32.33;;;19.97;;
11203;SDS011;5659;49.408;11.116;2023-03-01T01:43:26;32.83;;;21.73;;
11203;SDS011;5659;49.408;11.116;2023-03-01T01:45:54;30.13;;;19.57;;
11203;SDS011;5659;49.408;11.116;2023-03-01T01:48:22;32.03;;;20.13;;
11203;SDS011;5659;49.408;11.116;2023-03-01T01:50:55;30.80;;;19.87;;
11203;SDS011;5659;49.408;11.116;2023-03-01T01:53:22;32.20;;;20.03;;
11203;SDS011;5659;49.408;11.116;2023-03-01T01:55:51;30.57;;;19.63;;
11203;SDS011;5659;49.408;11.116;2023-03-01T01:58:19;32.77;;;20.37;;
11203;SDS011;5659;49.408;11.116;2023-03-01T02:00:45;34.40;;;21.27;;
11203;SDS011;5659;49.408;11.116;2023-03-01T02:03:13;37.67;;;22.00;;
11203;SDS011;5659;49.408;11.116;2023-03-01T02:08:20;31.17;;;20.20;;
11203;SDS011;5659;49.408;11.116;2023-03-01T02:10:48;33.57;;;20.70;;
11203;SDS011;5659;49.408;11.116;2023-03-01T02:13:14;36.47;;;21.00;;
11203;SDS011;5659;49.408;11.116;2023-03-01T02:15:41;33.67;;;21.47;;
11203;SDS011;5659;49.408;11.116;2023-03-01T02:18:08;31.93;;;20.80;;
11203;SDS011;5659;49.408;11.116;2023-03-01T02:23:04;33.23;;;20.73;;
11203;SDS011;5659;49.408;11.116;2023-03-01T02:25:36;31.23;;;20.97;;
11203;SDS011;5659;49.408;11.116;2023-03-01T02:30:42;35.07;;;21.13;;
11203;SDS011;5659;49.408;11.116;2023-03-01T02:33:28;35.50;;;21.53;;
11203;SDS011;5659;49.408;11.116;2023-03-01T02:35:57;31.13;;;20.53;;
11203;SDS011;5659;49.408;11.116;2023-03-01T02:38:24;33.13;;;21.63;;
11203;SDS011;5659;49.408;11.116;2023-03-01T02:40:50;32.33;;;21.03;;
11203;SDS011;5659;49.408;11.116;2023-03-01T02:43:17;37.17;;;20.77;;
11203;SDS011;5659;49.408;11.116;2023-03-01T02:45:50;35.80;;;22.40;;
11203;SDS011;5659;49.408;11.116;2023-03-01T02:48:18;34.37;;;21.40;;
11203;SDS011;5659;49.408;11.116;2023-03-01T02:50:47;33.63;;;21.90;;
11203;SDS011;5659;49.408;11.116;2023-03-01T02:55:43;36.27;;;22.10;;
11203;SDS011;5659;49.408;11.116;2023-03-01T02:58:09;32.80;;;21.47;;
11203;SDS011;5659;49.408;11.116;2023-03-01T03:00:36;36.20;;;21.97;;
11203;SDS011;5659;49.408;11.116;2023-03-01T03:03:05;35.63;;;22.80;;
11203;SDS011;5659;49.408;11.116;2023-03-01T03:05:31;35.77;;;21.87;;
11203;SDS011;5659;49.408;11.116;2023-03-01T03:08:01;35.27;;;21.83;;
11203;SDS011;5659;49.408;11.116;2023-03-01T03:10:29;33.23;;;21.97;;
11203;SDS011;5659;49.408;11.116;2023-03-01T03:12:57;35.33;;;22.40;;
11203;SDS011;5659;49.408;11.116;2023-03-01T03:15:24;34.80;;;21.83;;
11203;SDS011;5659;49.408;11.116;2023-03-01T03:17:51;37.83;;;22.17;;
11203;SDS011;5659;49.408;11.116;2023-03-01T03:20:19;41.47;;;22.73;;
11203;SDS011;5659;49.408;11.116;2023-03-01T03:22:46;36.47;;;21.40;;
11203;SDS011;5659;49.408;11.116;2023-03-01T03:25:12;33.63;;;21.23;;
11203;SDS011;5659;49.408;11.116;2023-03-01T03:27:39;37.37;;;22.73;;
11203;SDS011;5659;49.408;11.116;2023-03-01T03:30:07;34.17;;;21.17;;
11203;SDS011;5659;49.408;11.116;2023-03-01T03:32:34;31.33;;;20.30;;
11203;SDS011;5659;49.408;11.116;2023-03-01T03:35:01;33.67;;;21.73;;
11203;SDS011;5659;49.408;11.116;2023-03-01T03:37:27;37.43;;;22.03;;
11203;SDS011;5659;49.408;11.116;2023-03-01T03:40:12;35.93;;;21.33;;
11203;SDS011;5659;49.408;11.116;2023-03-01T03:42:40;34.80;;;21.50;;
11203;SDS011;5659;49.408;11.116;2023-03-01T03:45:06;34.83;;;21.77;;
11203;SDS011;5659;49.408;11.116;2023-03-01T03:47:32;35.10;;;21.47;;
11203;SDS011;5659;49.408;11.116;2023-03-01T03:49:58;32.30;;;20.33;;
11203;SDS011;5659;49.408;11.116;2023-03-01T03:52:24;36.60;;;21.80;;
11203;SDS011;5659;49.408;11.116;2023-03-01T03:54:50;32.37;;;21.07;;
11203;SDS011;5659;49.408;11.116;2023-03-01T03:57:16;34.13;;;22.33;;
11203;SDS011;5659;49.408;11.116;2023-03-01T03:59:42;32.47;;;21.07;;
11203;SDS011;5659;49.408;11.116;2023-03-01T04:02:08;31.93;;;20.73;;
11203;SDS011;5659;49.408;11.116;2023-03-01T04:04:34;35.77;;;21.30;;
11203;SDS011;5659;49.408;11.116;2023-03-01T04:07:00;31.50;;;20.50;;
11203;SDS011;5659;49.408;11.116;2023-03-01T04:09:26;35.50;;;21.73;;
11203;SDS011;5659;49.408;11.116;2023-03-01T04:11:52;32.73;;;20.97;;
11203;SDS011;5659;49.408;11.116;2023-03-01T04:14:18;35.67;;;20.77;;
11203;SDS011;5659;49.408;11.116;2023-03-01T04:16:43;31.53;;;20.37;;
11203;SDS011;5659;49.408;11.116;2023-03-01T04:19:09;32.50;;;20.77;;
11203;SDS011;5659;49.408;11.116;2023-03-01T04:21:35;37.43;;;21.37;;
11203;SDS011;5659;49.408;11.116;2023-03-01T04:24:01;36.20;;;21.30;;
11203;SDS011;5659;49.408;11.116;2023-03-01T04:26:28;35.93;;;20.43;;
11203;SDS011;5659;49.408;11.116;2023-03-01T04:28:54;33.27;;;20.17;;
11203;SDS011;5659;49.408;11.116;2023-03-01T04:31:20;30.80;;;19.50;;
11203;SDS011;5659;49.408;11.116;2023-03-01T04:33:53;31.80;;;19.10;;
11203;SDS011;5659;49.408;11.116;2023-03-01T04:36:24;30.37;;;19.20;;
11203;SDS011;5659;49.408;11.116;2023-03-01T04:38:50;33.80;;;20.27;;
11203;SDS011;5659;49.408;11.116;2023-03-01T04:41:17;33.70;;;20.90;;
11203;SDS011;5659;49.408;11.116;2023-03-01T04:43:43;33.80;;;20.37;;
11203;SDS011;5659;49.408;11.116;2023-03-01T04:46:13;33.37;;;20.00;;
11203;SDS011;5659;49.408;11.116;2023-03-01T04:48:40;33.13;;;19.90;;
11203;SDS011;5659;49.408;11.116;2023-03-01T04:51:06;31.57;;;20.73;;
11203;SDS011;5659;49.408;11.116;2023-03-01T04:53:33;33.50;;;19.77;;
11203;SDS011;5659;49.408;11.116;2023-03-01T04:56:01;34.90;;;21.10;;
11203;SDS011;5659;49.408;11.116;2023-03-01T04:58:27;29.83;;;19.80;;
11203;SDS011;5659;49.408;11.116;2023-03-01T05:00:53;35.53;;;21.03;;
11203;SDS011;5659;49.408;11.116;2023-03-01T05:03:20;35.27;;;21.33;;
11203;SDS011;5659;49.408;11.116;2023-03-01T05:05:48;33.13;;;20.67;;
11203;SDS011;5659;49.408;11.116;2023-03-01T05:08:14;35.20;;;21.43;;
11203;SDS011;5659;49.408;11.116;2023-03-01T05:10:46;33.00;;;19.77;;
11203;SDS011;5659;49.408;11.116;2023-03-01T05:13:13;35.47;;;20.63;;
11203;SDS011;5659;49.408;11.116;2023-03-01T05:15:45;32.60;;;19.87;;
11203;SDS011;5659;49.408;11.116;2023-03-01T05:18:11;36.63;;;20.63;;
11203;SDS011;5659;49.408;11.116;2023-03-01T05:20:37;35.13;;;20.60;;
11203;SDS011;5659;49.408;11.116;2023-03-01T05:23:03;35.17;;;20.17;;
11203;SDS011;5659;49.408;11.116;2023-03-01T05:25:30;33.47;;;19.97;;
11203;SDS011;5659;49.408;11.116;2023-03-01T05:27:58;30.80;;;20.13;;
11203;SDS011;5659;49.408;11.116;2023-03-01T05:30:24;32.60;;;21.27;;
11203;SDS011;5659;49.408;11.116;2023-03-01T05:32:50;32.20;;;18.80;;
11203;SDS011;5659;49.408;11.116;2023-03-01T05:35:20;31.43;;;20.07;;
11203;SDS011;5659;49.408;11.116;2023-03-01T05:37:47;30.30;;;20.00;;
11203;SDS011;5659;49.408;11.116;2023-03-01T05:40:17;33.20;;;20.37;;
11203;SDS011;5659;49.408;11.116;2023-03-01T05:42:51;35.67;;;21.30;;
11203;SDS011;5659;49.408;11.116;2023-03-01T05:45:19;33.03;;;21.77;;
11203;SDS011;5659;49.408;11.116;2023-03-01T05:47:45;34.27;;;22.23;;
11203;SDS011;5659;49.408;11.116;2023-03-01T05:50:16;32.33;;;20.93;;
11203;SDS011;5659;49.408;11.116;2023-03-01T05:52:44;34.87;;;21.90;;
11203;SDS011;5659;49.408;11.116;2023-03-01T05:55:10;35.77;;;22.30;;
11203;SDS011;5659;49.408;11.116;2023-03-01T05:57:36;35.70;;;21.20;;
11203;SDS011;5659;49.408;11.116;2023-03-01T06:00:02;33.60;;;21.10;;
11203;SDS011;5659;49.408;11.116;2023-03-01T06:02:28;35.77;;;21.00;;
11203;SDS011;5659;49.408;11.116;2023-03-01T06:04:54;31.93;;;20.77;;
11203;SDS011;5659;49.408;11.116;2023-03-01T06:07:20;34.53;;;21.63;;
11203;SDS011;5659;49.408;11.116;2023-03-01T06:09:46;31.00;;;20.00;;
11203;SDS011;5659;49.408;11.116;2023-03-01T06:12:12;42.07;;;21.33;;
11203;SDS011;5659;49.408;11.116;2023-03-01T06:14:38;35.53;;;22.20;;
11203;SDS011;5659;49.408;11.116;2023-03-01T06:17:04;40.27;;;21.03;;
11203;SDS011;5659;49.408;11.116;2023-03-01T06:19:30;34.90;;;21.67;;
11203;SDS011;5659;49.408;11.116;2023-03-01T06:21:56;34.63;;;21.10;;
11203;SDS011;5659;49.408;11.116;2023-03-01T06:24:22;38.27;;;20.37;;
11203;SDS011;5659;49.408;11.116;2023-03-01T06:26:48;32.90;;;20.83;;
11203;SDS011;5659;49.408;11.116;2023-03-01T06:29:14;35.67;;;22.30;;
11203;SDS011;5659;49.408;11.116;2023-03-01T06:31:40;37.33;;;21.60;;
11203;SDS011;5659;49.408;11.116;2023-03-01T06:34:06;32.27;;;21.33;;
11203;SDS011;5659;49.408;11.116;2023-03-01T06:36:32;34.20;;;21.10;;
11203;SDS011;5659;49.408;11.116;2023-03-01T06:38:58;33.57;;;21.10;;
11203;SDS011;5659;49.408;11.116;2023-03-01T06:41:24;38.10;;;20.87;;
11203;SDS011;5659;49.408;11.116;2023-03-01T06:43:50;45.43;;;22.03;;
11203;SDS011;5659;49.408;11.116;2023-03-01T06:46:17;34.47;;;21.37;;
11203;SDS011;5659;49.408;11.116;2023-03-01T06:48:43;35.07;;;20.67;;
11203;SDS011;5659;49.408;11.116;2023-03-01T06:51:09;34.67;;;21.47;;
11203;SDS011;5659;49.408;11.116;2023-03-01T06:53:35;31.93;;;20.87;;
11203;SDS011;5659;49.408;11.116;2023-03-01T06:56:01;38.53;;;21.10;;
11203;SDS011;5659;49.408;11.116;2023-03-01T06:58:27;36.57;;;20.70;;
11203;SDS011;5659;49.408;11.116;2023-03-01T07:00:53;36.20;;;21.50;;
11203;SDS011;5659;49.408;11.116;2023-03-01T07:03:19;34.97;;;22.03;;
11203;SDS011;5659;49.408;11.116;2023-03-01T07:05:45;34.87;;;21.07;;
11203;SDS011;5659;49.408;11.116;2023-03-01T07:08:11;33.33;;;20.80;;
11203;SDS011;5659;49.408;11.116;2023-03-01T07:10:36;31.60;;;20.33;;
11203;SDS011;5659;49.408;11.116;2023-03-01T07:13:02;32.17;;;20.30;;
11203;SDS011;5659;49.408;11.116;2023-03-01T07:15:29;38.93;;;20.80;;
11203;SDS011;5659;49.408;11.116;2023-03-01T07:17:55;32.33;;;20.40;;
11203;SDS011;5659;49.408;11.116;2023-03-01T07:20:21;35.33;;;21.67;;
11203;SDS011;5659;49.408;11.116;2023-03-01T07:22:50;33.73;;;21.33;;
11203;SDS011;5659;49.408;11.116;2023-03-01T07:25:16;35.37;;;21.50;;
11203;SDS011;5659;49.408;11.116;2023-03-01T07:27:42;34.43;;;21.83;;
11203;SDS011;5659;49.408;11.116;2023-03-01T07:30:08;41.73;;;22.40;;
11203;SDS011;5659;49.408;11.116;2023-03-01T07:32:34;38.73;;;21.87;;
11203;SDS011;5659;49.408;11.116;2023-03-01T07:35:00;39.20;;;20.73;;
11203;SDS011;5659;49.408;11.116;2023-03-01T07:37:26;36.57;;;21.23;;
11203;SDS011;5659;49.408;11.116;2023-03-01T07:39:52;37.77;;;21.80;;
11203;SDS011;5659;49.408;11.116;2023-03-01T07:42:18;33.57;;;21.50;;
11203;SDS011;5659;49.408;11.116;2023-03-01T07:44:44;34.47;;;22.10;;
11203;SDS011;5659;49.408;11.116;2023-03-01T07:47:10;30.33;;;20.70;;
11203;SDS011;5659;49.408;11.116;2023-03-01T07:49:36;35.07;;;21.67;;
11203;SDS011;5659;49.408;11.116;2023-03-01T07:52:02;38.40;;;20.93;;
11203;SDS011;5659;49.408;11.116;2023-03-01T07:54:28;33.40;;;19.93;;
11203;SDS011;5659;49.408;11.116;2023-03-01T07:56:54;31.50;;;20.40;;
11203;SDS011;5659;49.408;11.116;2023-03-01T07:59:20;37.27;;;20.40;;
11203;SDS011;5659;49.408;11.116;2023-03-01T08:01:46;39.27;;;22.13;;
11203;SDS011;5659;49.408;11.116;2023-03-01T08:04:12;36.47;;;21.00;;
11203;SDS011;5659;49.408;11.116;2023-03-01T08:06:38;34.03;;;19.90;;
11203;SDS011;5659;49.408;11.116;2023-03-01T08:09:04;31.27;;;20.53;;
11203;SDS011;5659;49.408;11.116;2023-03-01T08:11:30;31.80;;;19.40;;
11203;SDS011;5659;49.408;11.116;2023-03-01T08:13:56;34.53;;;20.50;;
11203;SDS011;5659;49.408;11.116;2023-03-01T08:16:22;31.03;;;19.80;;
11203;SDS011;5659;49.408;11.116;2023-03-01T08:18:48;32.30;;;19.90;;
11203;SDS011;5659;49.408;11.116;2023-03-01T08:21:15;35.00;;;20.10;;
11203;SDS011;5659;49.408;11.116;2023-03-01T08:23:41;29.53;;;19.53;;
11203;SDS011;5659;49.408;11.116;2023-03-01T08:26:09;27.60;;;18.83;;
11203;SDS011;5659;49.408;11.116;2023-03-01T08:28:36;39.13;;;20.93;;
11203;SDS011;5659;49.408;11.116;2023-03-01T08:31:02;29.80;;;18.63;;
11203;SDS011;5659;49.408;11.116;2023-03-01T08:33:28;30.10;;;19.63;;
11203;SDS011;5659;49.408;11.116;2023-03-01T08:36:02;29.30;;;18.93;;
11203;SDS011;5659;49.408;11.116;2023-03-01T08:38:28;28.40;;;18.23;;
11203;SDS011;5659;49.408;11.116;2023-03-01T08:40:54;33.37;;;18.90;;
11203;SDS011;5659;49.408;11.116;2023-03-01T08:43:20;24.73;;;16.90;;
11203;SDS011;5659;49.408;11.116;2023-03-01T08:45:48;28.87;;;18.90;;
11203;SDS011;5659;49.408;11.116;2023-03-01T08:48:14;28.77;;;18.23;;
11203;SDS011;5659;49.408;11.116;2023-03-01T08:50:39;29.57;;;17.47;;
11203;SDS011;5659;49.408;11.116;2023-03-01T08:53:06;29.00;;;18.13;;
11203;SDS011;5659;49.408;11.116;2023-03-01T08:55:32;26.73;;;17.07;;
11203;SDS011;5659;49.408;11.116;2023-03-01T08:57:58;27.80;;;16.70;;
11203;SDS011;5659;49.408;11.116;2023-03-01T09:00:24;31.13;;;18.00;;
11203;SDS011;5659;49.408;11.116;2023-03-01T09:02:50;27.63;;;17.57;;
11203;SDS011;5659;49.408;11.116;2023-03-01T09:05:16;26.83;;;17.30;;
11203;SDS011;5659;49.408;11.116;2023-03-01T09:07:42;31.90;;;18.40;;
11203;SDS011;5659;49.408;11.116;2023-03-01T09:10:08;28.43;;;18.07;;
11203;SDS011;5659;49.408;11.116;2023-03-01T09:12:34;30.23;;;18.60;;
11203;SDS011;5659;49.408;11.116;2023-03-01T09:15:00;29.47;;;17.90;;
11203;SDS011;5659;49.408;11.116;2023-03-01T09:17:26;34.67;;;18.50;;
11203;SDS011;5659;49.408;11.116;2023-03-01T09:19:52;28.73;;;17.57;;
11203;SDS011;5659;49.408;11.116;2023-03-01T09:22:18;35.47;;;20.00;;
11203;SDS011;5659;49.408;11.116;2023-03-01T09:24:44;28.67;;;18.63;;
11203;SDS011;5659;49.408;11.116;2023-03-01T09:27:10;25.70;;;17.20;;
11203;SDS011;5659;49.408;11.116;2023-03-01T09:29:38;29.17;;;18.40;;
11203;SDS011;5659;49.408;11.116;2023-03-01T09:32:04;29.97;;;17.73;;
11203;SDS011;5659;49.408;11.116;2023-03-01T09:34:31;27.60;;;17.10;;
11203;SDS011;5659;49.408;11.116;2023-03-01T09:37:17;28.33;;;17.63;;
11203;SDS011;5659;49.408;11.116;2023-03-01T09:39:43;24.67;;;17.17;;
11203;SDS011;5659;49.408;11.116;2023-03-01T09:42:10;28.83;;;17.63;;
11203;SDS011;5659;49.408;11.116;2023-03-01T09:44:43;29.00;;;16.93;;
11203;SDS011;5659;49.408;11.116;2023-03-01T09:49:43;25.27;;;16.37;;
11203;SDS011;5659;49.408;11.116;2023-03-01T09:54:46;26.23;;;16.97;;
11203;SDS011;5659;49.408;11.116;2023-03-01T10:04:54;27.27;;;16.87;;
11203;SDS011;5659;49.408;11.116;2023-03-01T10:07:28;25.97;;;16.73;;
11203;SDS011;5659;49.408;11.116;2023-03-01T10:09:57;21.87;;;15.07;;
11203;SDS011;5659;49.408;11.116;2023-03-01T10:12:26;21.17;;;15.47;;
11203;SDS011;5659;49.408;11.116;2023-03-01T10:15:14;22.73;;;16.00;;
11203;SDS011;5659;49.408;11.116;2023-03-01T10:23:05;20.40;;;14.90;;
11203;SDS011;5659;49.408;11.116;2023-03-01T10:28:01;17.92;;;13.68;;
11203;SDS011;5659;49.408;11.116;2023-03-01T10:30:35;17.30;;;13.68;;
11203;SDS011;5659;49.408;11.116;2023-03-01T10:33:04;18.02;;;13.20;;
11203;SDS011;5659;49.408;11.116;2023-03-01T10:35:33;16.48;;;13.20;;
11203;SDS011;5659;49.408;11.116;2023-03-01T10:38:03;17.35;;;13.55;;
11203;SDS011;5659;49.408;11.116;2023-03-01T10:40:29;19.95;;;13.85;;
11203;SDS011;5659;49.408;11.116;2023-03-01T10:42:59;19.42;;;13.48;;
11203;SDS011;5659;49.408;11.116;2023-03-01T10:45:31;19.52;;;13.50;;
11203;SDS011;5659;49.408;11.116;2023-03-01T10:50:46;21.05;;;12.93;;
11203;SDS011;5659;49.408;11.116;2023-03-01T10:55:56;14.77;;;12.38;;
11203;SDS011;5659;49.408;11.116;2023-03-01T10:58:22;16.45;;;13.60;;
11203;SDS011;5659;49.408;11.116;2023-03-01T11:00:50;17.33;;;14.13;;
11203;SDS011;5659;49.408;11.116;2023-03-01T11:03:19;16.50;;;12.13;;
11203;SDS011;5659;49.408;11.116;2023-03-01T11:05:57;16.70;;;13.60;;
11203;SDS011;5659;49.408;11.116;2023-03-01T11:14:03;16.85;;;13.50;;
11203;SDS011;5659;49.408;11.116;2023-03-01T11:19:26;16.83;;;13.07;;
11203;SDS011;5659;49.408;11.116;2023-03-01T11:24:32;15.93;;;13.00;;
11203;SDS011;5659;49.408;11.116;2023-03-01T11:26:59;14.02;;;12.27;;
11203;SDS011;5659;49.408;11.116;2023-03-01T11:29:41;18.67;;;12.88;;
11203;SDS011;5659;49.408;11.116;2023-03-01T11:32:10;15.07;;;12.85;;
11203;SDS011;5659;49.408;11.116;2023-03-01T11:34:39;15.27;;;11.75;;
11203;SDS011;5659;49.408;11.116;2023-03-01T11:37:21;16.65;;;12.25;;
11203;SDS011;5659;49.408;11.116;2023-03-01T11:39:58;15.80;;;12.75;;
11203;SDS011;5659;49.408;11.116;2023-03-01T11:45:11;15.55;;;12.40;;
11203;SDS011;5659;49.408;11.116;2023-03-01T11:55:02;14.68;;;12.10;;
11203;SDS011;5659;49.408;11.116;2023-03-01T12:00:05;15.52;;;12.63;;
11203;SDS011;5659;49.408;11.116;2023-03-01T12:07:46;14.90;;;12.23;;
11203;SDS011;5659;49.408;11.116;2023-03-01T12:10:22;17.15;;;12.95;;
11203;SDS011;5659;49.408;11.116;2023-03-01T12:15:30;15.02;;;11.70;;
11203;SDS011;5659;49.408;11.116;2023-03-01T12:20:27;15.32;;;11.93;;
11203;SDS011;5659;49.408;11.116;2023-03-01T12:23:15;18.85;;;12.82;;
11203;SDS011;5659;49.408;11.116;2023-03-01T12:25:45;18.58;;;12.25;;
11203;SDS011;5659;49.408;11.116;2023-03-01T12:28:24;14.05;;;12.20;;
11203;SDS011;5659;49.408;11.116;2023-03-01T12:31:08;15.07;;;11.52;;
11203;SDS011;5659;49.408;11.116;2023-03-01T12:36:23;16.02;;;10.80;;
11203;SDS011;5659;49.408;11.116;2023-03-01T12:49:28;16.83;;;12.00;;
11203;SDS011;5659;49.408;11.116;2023-03-01T12:51:56;16.80;;;11.88;;
11203;SDS011;5659;49.408;11.116;2023-03-01T12:54:29;12.77;;;10.88;;
11203;SDS011;5659;49.408;11.116;2023-03-01T12:56:56;15.95;;;11.40;;
11203;SDS011;5659;49.408;11.116;2023-03-01T12:59:30;13.63;;;10.40;;
11203;SDS011;5659;49.408;11.116;2023-03-01T13:07:36;12.00;;;9.82;;
11203;SDS011;5659;49.408;11.116;2023-03-01T13:17:47;13.43;;;10.73;;
11203;SDS011;5659;49.408;11.116;2023-03-01T13:20:18;14.57;;;10.48;;
11203;SDS011;5659;49.408;11.116;2023-03-01T13:22:45;14.02;;;10.38;;
11203;SDS011;5659;49.408;11.116;2023-03-01T13:25:13;12.88;;;10.48;;
11203;SDS011;5659;49.408;11.116;2023-03-01T13:27:39;12.77;;;10.63;;
11203;SDS011;5659;49.408;11.116;2023-03-01T13:30:12;16.10;;;11.07;;
11203;SDS011;5659;49.408;11.116;2023-03-01T13:32:51;13.35;;;11.18;;
11203;SDS011;5659;49.408;11.116;2023-03-01T13:37:43;16.08;;;10.70;;
11203;SDS011;5659;49.408;11.116;2023-03-01T13:42:56;14.00;;;10.85;;
11203;SDS011;5659;49.408;11.116;2023-03-01T13:45:32;15.27;;;11.02;;
11203;SDS011;5659;49.408;11.116;2023-03-01T13:48:00;12.77;;;11.27;;
11203;SDS011;5659;49.408;11.116;2023-03-01T13:50:28;14.20;;;11.50;;
11203;SDS011;5659;49.408;11.116;2023-03-01T13:52:56;13.48;;;11.30;;
11203;SDS011;5659;49.408;11.116;2023-03-01T13:58:00;14.38;;;10.43;;
11203;SDS011;5659;49.408;11.116;2023-03-01T14:00:27;12.07;;;10.00;;
11203;SDS011;5659;49.408;11.116;2023-03-01T14:03:01;14.40;;;10.23;;
11203;SDS011;5659;49.408;11.116;2023-03-01T14:05:28;16.20;;;10.27;;
11203;SDS011;5659;49.408;11.116;2023-03-01T14:07:54;15.52;;;10.35;;
11203;SDS011;5659;49.408;11.116;2023-03-01T14:10:20;16.80;;;11.38;;
11203;SDS011;5659;49.408;11.116;2023-03-01T14:12:51;14.90;;;10.18;;
11203;SDS011;5659;49.408;11.116;2023-03-01T14:15:34;12.85;;;10.25;;
11203;SDS011;5659;49.408;11.116;2023-03-01T14:18:03;15.25;;;10.95;;
11203;SDS011;5659;49.408;11.116;2023-03-01T14:20:31;12.18;;;10.60;;
11203;SDS011;5659;49.408;11.116;2023-03-01T14:23:01;15.35;;;10.38;;
11203;SDS011;5659;49.408;11.116;2023-03-01T14:25:28;15.23;;;10.98;;
11203;SDS011;5659;49.408;11.116;2023-03-01T14:28:18;15.07;;;11.38;;
11203;SDS011;5659;49.408;11.116;2023-03-01T14:30:42;12.60;;;10.60;;
11203;SDS011;5659;49.408;11.116;2023-03-01T14:36:06;18.33;;;10.52;;
11203;SDS011;5659;49.408;11.116;2023-03-01T14:38:34;14.48;;;11.25;;
11203;SDS011;5659;49.408;11.116;2023-03-01T14:41:02;18.98;;;11.10;;
11203;SDS011;5659;49.408;11.116;2023-03-01T14:43:29;14.23;;;10.73;;
11203;SDS011;5659;49.408;11.116;2023-03-01T14:45:55;12.02;;;10.38;;
11203;SDS011;5659;49.408;11.116;2023-03-01T14:48:21;15.25;;;11.43;;
11203;SDS011;5659;49.408;11.116;2023-03-01T14:50:47;13.18;;;10.43;;
11203;SDS011;5659;49.408;11.116;2023-03-01T14:53:18;14.70;;;11.48;;
11203;SDS011;5659;49.408;11.116;2023-03-01T14:55:46;13.15;;;10.50;;
11203;SDS011;5659;49.408;11.116;2023-03-01T14:58:14;14.65;;;11.20;;
11203;SDS011;5659;49.408;11.116;2023-03-01T15:00:44;14.57;;;10.80;;
11203;SDS011;5659;49.408;11.116;2023-03-01T15:03:13;13.85;;;10.93;;
11203;SDS011;5659;49.408;11.116;2023-03-01T15:05:41;12.63;;;10.85;;
11203;SDS011;5659;49.408;11.116;2023-03-01T15:08:07;14.32;;;10.63;;
11203;SDS011;5659;49.408;11.116;2023-03-01T15:10:54;12.27;;;10.45;;
11203;SDS011;5659;49.408;11.116;2023-03-01T15:13:22;19.52;;;10.57;;
11203;SDS011;5659;49.408;11.116;2023-03-01T15:15:49;13.18;;;10.65;;
11203;SDS011;5659;49.408;11.116;2023-03-01T15:18:25;14.27;;;10.63;;
11203;SDS011;5659;49.408;11.116;2023-03-01T15:20:52;16.48;;;10.98;;
11203;SDS011;5659;49.408;11.116;2023-03-01T15:25:44;13.32;;;10.75;;
11203;SDS011;5659;49.408;11.116;2023-03-01T15:28:12;15.20;;;11.18;;
11203;SDS011;5659;49.408;11.116;2023-03-01T15:30:42;14.23;;;11.23;;
11203;SDS011;5659;49.408;11.116;2023-03-01T15:33:19;15.63;;;11.25;;
11203;SDS011;5659;49.408;11.116;2023-03-01T15:35:46;14.10;;;11.07;;
11203;SDS011;5659;49.408;11.116;2023-03-01T15:40:51;13.65;;;10.55;;
11203;SDS011;5659;49.408;11.116;2023-03-01T15:46:02;15.88;;;11.10;;
11203;SDS011;5659;49.408;11.116;2023-03-01T15:48:29;14.45;;;10.73;;
11203;SDS011;5659;49.408;11.116;2023-03-01T15:50:55;15.20;;;10.98;;
11203;SDS011;5659;49.408;11.116;2023-03-01T15:53:22;15.77;;;12.05;;
11203;SDS011;5659;49.408;11.116;2023-03-01T15:55:48;14.95;;;11.10;;
11203;SDS011;5659;49.408;11.116;2023-03-01T16:00:41;18.65;;;11.10;;
11203;SDS011;5659;49.408;11.116;2023-03-01T16:03:08;15.10;;;11.48;;
11203;SDS011;5659;49.408;11.116;2023-03-01T16:05:36;17.52;;;12.40;;
11203;SDS011;5659;49.408;11.116;2023-03-01T16:08:02;18.88;;;12.07;;
11203;SDS011;5659;49.408;11.116;2023-03-01T16:10:30;21.85;;;13.27;;
11203;SDS011;5659;49.408;11.116;2023-03-01T16:12:56;18.65;;;12.70;;
11203;SDS011;5659;49.408;11.116;2023-03-01T16:15:27;18.92;;;13.73;;
11203;SDS011;5659;49.408;11.116;2023-03-01T16:17:53;23.38;;;13.90;;
11203;SDS011;5659;49.408;11.116;2023-03-01T16:20:19;19.38;;;14.43;;
11203;SDS011;5659;49.408;11.116;2023-03-01T16:22:46;20.40;;;15.00;;